Time;durP1;ratioP1;P1;durP2;ratioP2;P2;SDS_P1;SDS_P2;PMS_P1;PMS_P2;Temp;Humidity;BMP_temperature;BMP_pressure;BME280_temperature;BME280_humidity;BME280_pressure;Samples;Min_cycle;Max_cycle;Signal;HPM_P1;HPM_P2
2021/12/19 00:00:16;;;;;;;6.00;2.28;;;5.50;99.90;;;;;;5058650;28;20149;-89
2021/12/19 00:03:01;;;;;;;3.42;1.20;;;5.50;99.90;;;;;;5019453;28;20053;-89
2021/12/19 00:08:38;;;;;;;4.13;1.53;;;5.40;99.90;;;;;;5040244;28;20056;-90
2021/12/19 00:11:07;;;;;;;4.35;1.33;;;5.40;99.90;;;;;;5057688;28;20045;-90
2021/12/19 00:13:40;;;;;;;8.43;1.83;;;5.40;99.90;;;;;;5045469;28;20411;-90
2021/12/19 00:16:17;;;;;;;7.20;2.50;;;5.40;99.90;;;;;;5032547;28;20055;-90
2021/12/19 00:18:48;;;;;;;6.30;1.40;;;5.30;99.90;;;;;;5035086;28;20049;-90
2021/12/19 00:21:22;;;;;;;4.77;1.37;;;5.30;99.90;;;;;;5022228;28;20049;-90
2021/12/19 00:23:54;;;;;;;6.30;1.70;;;5.20;99.90;;;;;;5039506;28;20476;-90
2021/12/19 00:26:30;;;;;;;4.03;1.65;;;5.30;99.90;;;;;;5028859;28;20052;-90
2021/12/19 00:29:03;;;;;;;6.30;1.83;;;5.20;99.90;;;;;;5045365;28;20056;-90
2021/12/19 00:31:38;;;;;;;5.63;1.60;;;5.20;99.90;;;;;;5040756;28;20059;-90
2021/12/19 00:34:08;;;;;;;4.00;1.53;;;5.20;99.90;;;;;;5042790;28;20051;-90
2021/12/19 00:36:37;;;;;;;4.60;1.15;;;5.20;99.90;;;;;;5040173;28;20053;-89
2021/12/19 00:39:15;;;;;;;5.85;2.40;;;5.20;99.90;;;;;;5028511;28;20049;-90
2021/12/19 00:41:52;;;;;;;6.50;2.00;;;5.30;99.90;;;;;;5051068;28;20272;-90
2021/12/19 00:44:23;;;;;;;2.15;0.88;;;5.30;99.90;;;;;;5042844;28;20120;-90
2021/12/19 00:47:07;;;;;;;3.50;1.47;;;5.30;99.90;;;;;;5036658;28;20057;-90
2021/12/19 00:49:40;;;;;;;3.50;1.30;;;5.30;99.90;;;;;;5018183;28;20060;-90
2021/12/19 00:52:16;;;;;;;6.75;1.65;;;5.30;99.90;;;;;;5015768;28;20053;-90
2021/12/19 00:54:46;;;;;;;4.85;1.77;;;5.30;99.90;;;;;;5045053;28;20063;-90
2021/12/19 00:57:16;;;;;;;4.82;1.30;;;5.30;99.90;;;;;;5025814;28;20057;-90
2021/12/19 00:59:45;;;;;;;5.20;1.30;;;5.30;99.90;;;;;;5027570;28;20516;-90
2021/12/19 01:02:19;;;;;;;3.97;1.20;;;5.30;99.90;;;;;;5038023;28;20050;-90
2021/12/19 01:04:54;;;;;;;5.00;1.67;;;5.20;99.90;;;;;;5038589;28;20053;-90
2021/12/19 01:07:24;;;;;;;4.53;1.77;;;5.20;99.90;;;;;;5045220;28;20045;-89
2021/12/19 01:09:58;;;;;;;5.93;2.05;;;5.20;99.90;;;;;;5046456;28;20144;-89
2021/12/19 01:12:31;;;;;;;4.00;1.60;;;5.30;99.90;;;;;;5050780;28;20067;-89
2021/12/19 01:15:24;;;;;;;3.03;1.13;;;5.30;99.90;;;;;;5031313;28;20132;-89
2021/12/19 01:18:01;;;;;;;3.75;1.40;;;5.30;99.90;;;;;;5016666;28;20153;-89
2021/12/19 01:20:34;;;;;;;6.35;1.63;;;5.30;99.90;;;;;;5032412;28;20088;-89
2021/12/19 01:23:07;;;;;;;5.03;1.85;;;5.30;99.90;;;;;;5032350;28;20120;-90
2021/12/19 01:25:43;;;;;;;4.93;1.53;;;5.30;99.90;;;;;;5047774;28;20131;-89
2021/12/19 01:31:08;;;;;;;2.88;0.88;;;5.30;99.90;;;;;;5037608;28;20123;-90
2021/12/19 01:33:42;;;;;;;3.10;1.00;;;5.40;99.90;;;;;;5036239;28;20050;-90
2021/12/19 01:36:12;;;;;;;3.17;1.20;;;5.30;99.90;;;;;;5037302;28;20468;-90
2021/12/19 01:38:46;;;;;;;4.10;1.00;;;5.20;99.90;;;;;;5022752;28;20073;-90
2021/12/19 01:41:20;;;;;;;5.03;1.85;;;5.20;99.90;;;;;;5037534;28;20090;-90
2021/12/19 01:43:53;;;;;;;4.85;1.48;;;5.20;99.90;;;;;;5041189;28;20053;-89
2021/12/19 01:46:31;;;;;;;3.50;1.48;;;5.30;99.90;;;;;;5050646;28;20052;-89
2021/12/19 01:49:28;;;;;;;6.00;2.67;;;5.30;99.90;;;;;;5021210;28;20145;-89
2021/12/19 01:52:16;;;;;;;4.80;1.33;;;5.30;99.90;;;;;;5023472;28;20060;-89
2021/12/19 01:54:47;;;;;;;4.47;1.70;;;5.40;99.90;;;;;;5038053;28;20052;-89
2021/12/19 01:57:22;;;;;;;6.25;1.95;;;5.40;99.90;;;;;;5021114;28;20067;-89
2021/12/19 01:59:51;;;;;;;7.63;1.67;;;5.40;99.90;;;;;;5042743;28;20053;-91
2021/12/19 02:02:26;;;;;;;5.25;1.95;;;5.40;99.90;;;;;;5031561;28;20072;-90
2021/12/19 02:04:57;;;;;;;3.13;1.47;;;5.40;99.90;;;;;;5027287;28;20141;-90
2021/12/19 02:07:29;;;;;;;5.55;1.45;;;5.40;99.90;;;;;;5031959;28;20053;-91
2021/12/19 02:10:04;;;;;;;8.70;2.42;;;5.40;99.90;;;;;;5040583;28;20061;-90
2021/12/19 02:12:35;;;;;;;6.18;2.10;;;5.40;99.90;;;;;;5034048;28;20088;-90
2021/12/19 02:15:05;;;;;;;5.43;1.83;;;5.50;99.90;;;;;;5053578;28;20041;-90
2021/12/19 02:17:34;;;;;;;4.10;1.87;;;5.40;99.90;;;;;;5021317;28;20045;-89
2021/12/19 02:20:12;;;;;;;5.05;1.17;;;5.50;99.90;;;;;;5034366;28;20053;-91
2021/12/19 02:22:46;;;;;;;5.72;2.30;;;5.60;99.90;;;;;;5024615;28;20060;-88
2021/12/19 02:25:23;;;;;;;4.18;1.70;;;5.60;99.90;;;;;;5047962;28;20060;-90
2021/12/19 02:30:59;;;;;;;3.80;1.90;;;5.60;99.90;;;;;;5035096;28;20095;-90
2021/12/19 02:33:35;;;;;;;6.00;1.77;;;5.60;99.90;;;;;;5033092;28;20050;-90
2021/12/19 02:36:22;;;;;;;4.82;1.65;;;5.60;99.90;;;;;;5025586;28;20056;-90
2021/12/19 02:50:53;;;;;;;4.53;2.00;;;5.60;99.90;;;;;;5053532;28;20118;-89
2021/12/19 02:53:34;;;;;;;5.05;1.65;;;5.50;99.90;;;;;;5042895;28;20049;-89
2021/12/19 02:56:11;;;;;;;4.80;1.50;;;5.50;99.90;;;;;;5053100;28;20041;-90
2021/12/19 02:58:43;;;;;;;6.93;2.03;;;5.50;99.90;;;;;;5052292;28;20061;-89
2021/12/19 03:01:16;;;;;;;3.15;1.45;;;5.60;99.90;;;;;;5046147;28;20059;-90
2021/12/19 03:03:46;;;;;;;3.13;1.20;;;5.50;99.90;;;;;;5035597;28;20077;-89
2021/12/19 03:06:15;;;;;;;5.45;1.50;;;5.50;99.90;;;;;;5040370;28;20075;-90
2021/12/19 03:09:03;;;;;;;3.80;1.33;;;5.60;99.90;;;;;;5034605;28;20046;-89
2021/12/19 03:20:15;;;;;;;4.55;1.10;;;5.70;99.90;;;;;;5029405;28;20049;-89
2021/12/19 03:23:25;;;;;;;6.85;1.00;;;5.70;99.90;;;;;;5020675;28;20049;-89
2021/12/19 03:25:58;;;;;;;2.50;0.73;;;5.70;99.90;;;;;;5051586;28;20098;-89
2021/12/19 03:28:34;;;;;;;2.97;1.23;;;5.70;99.90;;;;;;5052036;28;20055;-90
2021/12/19 03:31:06;;;;;;;3.97;1.30;;;5.70;99.90;;;;;;5035773;28;20138;-89
2021/12/19 03:36:35;;;;;;;3.03;1.35;;;5.70;99.90;;;;;;5034460;28;20072;-89
2021/12/19 03:39:25;;;;;;;4.17;1.23;;;5.70;99.90;;;;;;5035499;28;20143;-89
2021/12/19 03:41:59;;;;;;;4.57;1.52;;;5.70;99.90;;;;;;5033139;28;20060;-89
2021/12/19 03:44:33;;;;;;;2.95;0.90;;;5.70;99.90;;;;;;5032885;28;20127;-89
2021/12/19 03:47:05;;;;;;;3.78;1.05;;;5.70;99.90;;;;;;5046075;28;20045;-90
2021/12/19 03:49:40;;;;;;;3.35;1.30;;;5.70;99.90;;;;;;5022794;28;20037;-89
2021/12/19 03:52:11;;;;;;;3.80;1.07;;;5.80;99.90;;;;;;5029549;28;20221;-90
2021/12/19 03:54:40;;;;;;;5.22;1.65;;;5.80;99.90;;;;;;5022163;28;20056;-90
2021/12/19 03:57:10;;;;;;;3.67;1.55;;;5.80;99.90;;;;;;5039646;28;20053;-89
2021/12/19 03:59:49;;;;;;;3.75;1.40;;;5.70;99.90;;;;;;5051606;28;20419;-89
2021/12/19 04:02:26;;;;;;;5.90;2.20;;;5.70;99.90;;;;;;5039592;28;20093;-89
2021/12/19 04:04:58;;;;;;;6.60;1.13;;;5.70;99.90;;;;;;5031121;28;20049;-89
2021/12/19 04:07:28;;;;;;;5.47;1.35;;;5.60;99.90;;;;;;5035911;28;20041;-89
2021/12/19 04:10:06;;;;;;;3.88;1.65;;;5.50;99.90;;;;;;5036365;28;20389;-90
2021/12/19 04:12:40;;;;;;;6.35;1.77;;;5.60;99.90;;;;;;5045051;28;20144;-89
2021/12/19 04:15:33;;;;;;;4.28;1.45;;;5.60;99.90;;;;;;5046030;28;20389;-89
2021/12/19 04:20:51;;;;;;;5.65;1.67;;;5.70;99.90;;;;;;5077720;27;1711358;-84
2021/12/19 04:23:21;;;;;;;3.35;1.20;;;5.70;99.90;;;;;;5112653;28;20096;-84
2021/12/19 04:25:50;;;;;;;4.90;1.80;;;5.70;99.90;;;;;;5099050;28;20070;-87
2021/12/19 04:28:24;;;;;;;4.77;1.63;;;5.70;99.90;;;;;;5111896;28;20058;-85
2021/12/19 04:30:53;;;;;;;5.40;1.55;;;5.70;99.90;;;;;;5104096;28;20139;-85
2021/12/19 04:33:23;;;;;;;6.30;2.13;;;5.70;99.90;;;;;;5111221;28;20051;-84
2021/12/19 04:35:59;;;;;;;6.13;1.58;;;5.70;99.90;;;;;;5104486;28;20108;-85
2021/12/19 04:39:13;;;;;;;3.75;1.15;;;5.70;99.90;;;;;;5099029;28;20127;-85
2021/12/19 04:42:39;;;;;;;4.33;1.40;;;5.70;99.90;;;;;;5105538;28;20052;-85
2021/12/19 04:53:34;;;;;;;3.65;1.38;;;5.70;99.90;;;;;;5097167;28;20067;-86
2021/12/19 05:04:40;;;;;;;6.03;1.60;;;5.70;99.90;;;;;;5116406;28;20131;-87
2021/12/19 05:15:38;;;;;;;4.97;1.58;;;5.70;99.90;;;;;;5041222;28;20053;-86
2021/12/19 05:18:09;;;;;;;4.80;1.73;;;5.70;99.90;;;;;;5122160;28;20130;-85
2021/12/19 05:20:40;;;;;;;3.72;1.48;;;5.70;99.90;;;;;;5108422;28;20072;-87
2021/12/19 05:23:18;;;;;;;4.17;2.10;;;5.70;99.90;;;;;;5096292;28;20483;-85
2021/12/19 05:25:48;;;;;;;4.30;1.25;;;5.70;99.90;;;;;;5086207;28;20080;-85
2021/12/19 05:31:13;;;;;;;3.95;1.70;;;5.70;99.90;;;;;;5055670;28;20051;-87
2021/12/19 05:33:42;;;;;;;5.90;1.50;;;5.70;99.90;;;;;;5044812;28;20060;-87
2021/12/19 05:44:09;;;;;;;3.37;1.30;;;5.70;99.90;;;;;;5073528;28;20054;-87
2021/12/19 05:47:23;;;;;;;3.13;1.15;;;5.60;99.90;;;;;;5069108;28;20483;-84
2021/12/19 05:49:52;;;;;;;3.80;1.30;;;5.60;99.90;;;;;;5050329;28;20317;-87
2021/12/19 05:52:21;;;;;;;3.17;1.33;;;5.70;99.90;;;;;;5038122;28;20053;-87
2021/12/19 05:54:50;;;;;;;3.70;1.15;;;5.70;99.90;;;;;;5072843;28;20056;-86
2021/12/19 05:57:20;;;;;;;4.05;1.75;;;5.60;99.90;;;;;;5061126;28;20049;-85
2021/12/19 05:59:48;;;;;;;3.03;1.67;;;5.60;99.90;;;;;;5066539;28;20091;-84
2021/12/19 06:02:17;;;;;;;3.10;1.07;;;5.60;99.90;;;;;;5064710;28;20087;-86
2021/12/19 06:04:46;;;;;;;3.80;1.50;;;5.60;99.90;;;;;;5046345;28;20470;-86
2021/12/19 06:07:15;;;;;;;4.15;1.30;;;5.60;99.90;;;;;;5044118;28;20052;-86
2021/12/19 06:10:09;;;;;;;5.22;1.30;;;5.70;99.90;;;;;;5066075;28;20471;-87
2021/12/19 06:12:40;;;;;;;3.35;1.08;;;5.70;99.90;;;;;;5063885;28;20045;-87
2021/12/19 06:15:10;;;;;;;5.10;1.50;;;5.70;99.90;;;;;;5074569;28;20052;-85
2021/12/19 06:17:39;;;;;;;2.28;1.10;;;5.70;99.90;;;;;;5049834;28;20056;-86
2021/12/19 06:20:10;;;;;;;4.00;1.50;;;5.70;99.90;;;;;;5078611;28;20052;-85
2021/12/19 06:22:39;;;;;;;5.43;1.00;;;5.80;99.90;;;;;;5086097;28;20067;-85
2021/12/19 06:25:10;;;;;;;4.35;1.40;;;5.80;99.90;;;;;;5068818;28;20110;-85
2021/12/19 06:27:39;;;;;;;4.33;1.97;;;5.80;99.90;;;;;;5084956;28;20147;-85
2021/12/19 06:30:37;;;;;;;3.90;1.92;;;5.80;99.90;;;;;;5084573;28;20055;-84
2021/12/19 06:33:32;;;;;;;8.15;1.67;;;5.80;99.90;;;;;;5092712;28;20075;-84
2021/12/19 06:36:01;;;;;;;3.47;1.33;;;5.80;99.90;;;;;;5090658;28;20055;-85
2021/12/19 06:38:32;;;;;;;2.90;1.40;;;5.80;99.90;;;;;;5089010;28;20093;-85
2021/12/19 06:41:00;;;;;;;3.03;1.60;;;5.80;99.90;;;;;;5090085;28;20052;-85
2021/12/19 06:43:32;;;;;;;3.47;1.80;;;5.80;99.90;;;;;;5087981;28;20052;-85
2021/12/19 06:46:01;;;;;;;4.38;1.73;;;5.80;99.90;;;;;;5085662;28;20048;-85
2021/12/19 06:48:33;;;;;;;7.80;2.10;;;5.70;99.90;;;;;;5085815;28;20079;-85
2021/12/19 06:51:01;;;;;;;4.78;2.00;;;5.70;99.90;;;;;;5091706;28;20048;-85
2021/12/19 06:53:32;;;;;;;4.50;1.60;;;5.70;99.90;;;;;;5092803;28;20046;-86
2021/12/19 06:56:01;;;;;;;3.25;1.45;;;5.70;99.90;;;;;;5090799;28;20051;-86
2021/12/19 06:58:33;;;;;;;3.92;1.73;;;5.70;99.90;;;;;;5083733;28;20059;-84
2021/12/19 07:01:06;;;;;;;5.05;2.38;;;5.60;99.90;;;;;;5065357;28;20415;-86
2021/12/19 07:03:35;;;;;;;6.72;2.25;;;5.60;99.90;;;;;;5082384;28;20139;-84
2021/12/19 07:06:07;;;;;;;4.83;2.17;;;5.60;99.90;;;;;;5069032;28;20142;-86
2021/12/19 07:08:35;;;;;;;5.97;2.67;;;5.60;99.90;;;;;;5087085;28;20478;-87
2021/12/19 07:11:07;;;;;;;4.40;2.28;;;5.60;99.90;;;;;;5101556;28;20060;-86
2021/12/19 07:13:37;;;;;;;3.50;1.80;;;5.70;99.90;;;;;;5066683;28;20509;-89
2021/12/19 07:16:30;;;;;;;4.32;1.92;;;5.60;99.90;;;;;;5080713;28;20044;-89
2021/12/19 07:19:23;;;;;;;3.13;1.70;;;5.70;99.90;;;;;;5063941;28;20052;-86
2021/12/19 07:22:18;;;;;;;5.47;2.40;;;5.60;99.90;;;;;;5044483;28;20045;-88
2021/12/19 07:24:46;;;;;;;3.10;1.55;;;5.60;99.90;;;;;;5061940;28;20049;-85
2021/12/19 07:27:15;;;;;;;4.07;1.65;;;5.50;99.90;;;;;;5069221;28;20052;-85
2021/12/19 07:29:45;;;;;;;4.57;1.65;;;5.50;99.90;;;;;;5068068;28;20052;-87
2021/12/19 07:32:13;;;;;;;5.70;2.50;;;5.50;99.90;;;;;;5069222;28;20059;-85
2021/12/19 07:34:43;;;;;;;3.63;1.98;;;5.60;99.90;;;;;;5067541;28;20055;-86
2021/12/19 07:37:12;;;;;;;4.22;1.65;;;5.60;99.90;;;;;;5070765;28;20047;-87
2021/12/19 07:39:52;;;;;;;4.90;2.15;;;5.60;99.90;;;;;;5069495;28;20094;-88
2021/12/19 07:42:21;;;;;;;5.18;2.20;;;5.70;99.90;;;;;;5054019;28;20050;-87
2021/12/19 07:44:51;;;;;;;5.37;2.50;;;5.60;99.90;;;;;;5059335;28;20044;-86
2021/12/19 07:47:20;;;;;;;3.83;1.98;;;5.70;99.90;;;;;;5057883;28;20041;-87
2021/12/19 07:49:48;;;;;;;5.22;2.38;;;5.70;99.90;;;;;;5053407;28;20048;-87
2021/12/19 07:52:18;;;;;;;5.97;2.17;;;5.70;99.90;;;;;;5074458;28;20057;-86
2021/12/19 07:54:47;;;;;;;3.15;1.55;;;5.80;99.90;;;;;;5085631;28;20059;-87
2021/12/19 07:57:16;;;;;;;4.40;1.90;;;5.70;99.90;;;;;;5088361;28;20124;-87
2021/12/19 07:59:44;;;;;;;6.50;2.33;;;5.70;99.90;;;;;;5076412;28;20056;-86
2021/12/19 08:02:14;;;;;;;5.05;2.50;;;5.80;99.90;;;;;;5062380;28;20056;-86
2021/12/19 08:04:42;;;;;;;5.10;2.08;;;5.80;99.90;;;;;;5049538;28;20076;-86
2021/12/19 08:07:12;;;;;;;4.00;1.83;;;5.70;99.90;;;;;;5049614;28;20044;-87
2021/12/19 08:09:58;;;;;;;5.07;2.30;;;5.70;99.90;;;;;;5069888;28;20437;-86
2021/12/19 08:12:26;;;;;;;6.65;2.55;;;5.80;99.90;;;;;;5069153;28;20048;-93
2021/12/19 08:14:55;;;;;;;4.88;2.20;;;5.90;99.90;;;;;;5069715;28;20063;-87
2021/12/19 08:17:26;;;;;;;4.30;2.03;;;5.90;99.90;;;;;;5045338;28;20056;-85
2021/12/19 08:19:55;;;;;;;5.75;2.50;;;6.00;99.90;;;;;;5052010;28;20056;-85
2021/12/19 08:22:26;;;;;;;4.80;1.87;;;6.00;99.90;;;;;;5067311;28;20105;-88
2021/12/19 08:24:57;;;;;;;5.63;2.40;;;6.10;99.90;;;;;;5064477;28;20048;-87
2021/12/19 08:27:27;;;;;;;8.18;2.38;;;6.20;99.90;;;;;;5053323;28;20049;-89
2021/12/19 08:29:55;;;;;;;5.40;2.15;;;6.20;99.90;;;;;;5067218;28;20056;-88
2021/12/19 08:32:27;;;;;;;11.40;3.33;;;6.30;99.90;;;;;;5068074;28;20040;-91
2021/12/19 08:34:55;;;;;;;6.67;2.53;;;6.20;99.90;;;;;;5066624;28;20051;-87
2021/12/19 08:37:24;;;;;;;7.22;2.80;;;6.20;99.90;;;;;;5073534;28;20055;-87
2021/12/19 08:39:52;;;;;;;10.73;3.67;;;6.20;99.90;;;;;;5063598;28;20144;-89
2021/12/19 08:42:21;;;;;;;10.77;3.20;;;6.20;99.90;;;;;;5069846;28;20149;-87
2021/12/19 08:44:50;;;;;;;7.22;3.20;;;6.30;99.90;;;;;;5069004;28;20052;-89
2021/12/19 08:47:19;;;;;;;8.07;3.17;;;6.30;99.90;;;;;;5071304;28;20157;-91
2021/12/19 08:49:49;;;;;;;6.35;3.20;;;6.30;99.90;;;;;;5070603;28;20131;-87
2021/12/19 08:52:18;;;;;;;7.03;2.75;;;6.30;99.90;;;;;;5068988;28;20055;-86
2021/12/19 08:54:47;;;;;;;7.80;3.13;;;6.30;99.90;;;;;;5074027;28;20062;-91
2021/12/19 08:57:15;;;;;;;7.60;3.13;;;6.30;99.90;;;;;;5076878;28;20048;-90
2021/12/19 08:59:44;;;;;;;6.80;3.30;;;6.30;99.90;;;;;;5069536;28;20056;-89
2021/12/19 09:02:13;;;;;;;8.57;3.63;;;6.40;99.90;;;;;;5071614;28;20114;-92
2021/12/19 09:04:42;;;;;;;8.98;2.85;;;6.40;99.90;;;;;;5072159;28;20048;-91
2021/12/19 09:07:15;;;;;;;7.20;2.58;;;6.40;99.90;;;;;;5076070;28;20422;-91
2021/12/19 09:10:11;;;;;;;10.27;3.42;;;6.40;99.90;;;;;;5091366;28;20123;-91
2021/12/19 09:12:40;;;;;;;8.67;3.53;;;6.30;99.90;;;;;;5091063;28;20044;-92
2021/12/19 09:15:10;;;;;;;9.85;3.28;;;6.30;99.90;;;;;;5077642;28;20041;-91
2021/12/19 09:17:39;;;;;;;7.60;3.22;;;6.40;99.90;;;;;;5075508;28;20506;-91
2021/12/19 09:20:11;;;;;;;7.35;3.50;;;6.40;99.90;;;;;;5070973;28;20059;-92
2021/12/19 09:22:42;;;;;;;9.32;3.75;;;6.30;99.90;;;;;;5067581;28;20050;-90
2021/12/19 09:25:19;;;;;;;8.60;3.90;;;6.30;99.90;;;;;;5074448;28;20214;-90
2021/12/19 09:28:13;;;;;;;10.82;3.67;;;6.40;99.90;;;;;;5066883;28;20047;-88
2021/12/19 09:31:08;;;;;;;8.00;3.40;;;6.40;99.90;;;;;;5066291;28;20048;-90
2021/12/19 09:33:37;;;;;;;10.98;4.28;;;6.30;99.90;;;;;;5063131;28;20083;-87
2021/12/19 09:36:07;;;;;;;8.25;3.65;;;6.30;99.90;;;;;;5075006;28;20229;-89
2021/12/19 09:38:37;;;;;;;10.27;3.53;;;6.20;99.90;;;;;;5074387;28;20040;-89
2021/12/19 09:41:14;;;;;;;7.70;3.70;;;6.30;99.90;;;;;;5065961;28;20143;-89
2021/12/19 09:43:43;;;;;;;9.85;3.88;;;6.40;99.90;;;;;;5071358;28;20139;-90
2021/12/19 09:46:14;;;;;;;10.15;4.43;;;6.50;99.90;;;;;;5075596;28;20067;-88
2021/12/19 09:48:43;;;;;;;8.95;4.05;;;6.50;99.90;;;;;;5070400;28;20558;-91
2021/12/19 09:54:09;;;;;;;10.32;4.43;;;6.40;99.90;;;;;;5066965;28;20131;-89
2021/12/19 09:56:38;;;;;;;7.65;4.28;;;6.40;99.90;;;;;;5067312;28;20044;-92
2021/12/19 09:59:11;;;;;;;13.73;4.50;;;6.40;99.90;;;;;;5068420;28;20049;-89
2021/12/19 10:01:40;;;;;;;9.98;4.82;;;6.40;99.90;;;;;;5069380;28;20048;-89
2021/12/19 10:04:37;;;;;;;8.70;3.77;;;6.40;99.90;;;;;;5076879;28;20063;-91
2021/12/19 10:07:13;;;;;;;10.82;4.85;;;6.50;99.90;;;;;;5050488;28;20056;-93
2021/12/19 10:09:58;;;;;;;9.43;4.25;;;6.50;99.90;;;;;;5062220;28;20056;-93
2021/12/19 10:12:49;;;;;;;7.38;3.65;;;6.40;99.90;;;;;;5075681;28;20051;-91
2021/12/19 10:18:20;;;;;;;8.53;4.17;;;6.30;99.90;;;;;;4360302;23;20133;-79
2021/12/19 10:20:57;;;;;;;9.88;4.40;;;6.40;99.90;;;;;;5002310;28;20043;-79
2021/12/19 11:15:27;;;;;;;12.38;4.65;;;6.20;99.90;;;;;;4890334;29;20057;-74
2021/12/19 11:17:57;;;;;;;11.10;4.33;;;6.30;99.90;;;;;;4867309;29;20308;-76
2021/12/19 11:20:26;;;;;;;8.93;4.07;;;6.30;99.90;;;;;;4870931;29;20461;-73
2021/12/19 11:23:47;;;;;;;8.63;4.07;;;6.30;99.90;;;;;;5045976;23;20064;-73
2021/12/19 11:26:20;;;;;;;8.10;3.22;;;6.30;99.90;;;;;;5263148;23;20062;-81
2021/12/19 11:28:51;;;;;;;8.68;3.55;;;6.30;99.90;;;;;;4869528;29;20071;-77
2021/12/19 11:31:20;;;;;;;10.13;3.93;;;6.20;99.90;;;;;;4894252;29;20052;-78
2021/12/19 11:34:23;;;;;;;11.32;4.40;;;6.20;99.90;;;;;;4898215;29;20050;-76
2021/12/19 11:37:03;;;;;;;8.32;4.00;;;6.20;99.90;;;;;;4863235;29;20059;-77
2021/12/19 11:39:35;;;;;;;8.85;4.50;;;6.20;99.90;;;;;;4874547;29;20506;-78
2021/12/19 11:42:08;;;;;;;8.40;3.58;;;6.30;99.90;;;;;;4888577;29;20486;-76
2021/12/19 11:44:46;;;;;;;9.83;4.03;;;6.30;99.90;;;;;;4894265;29;20084;-78
2021/12/19 11:47:43;;;;;;;8.85;3.85;;;6.40;99.90;;;;;;4891104;29;20055;-75
2021/12/19 11:50:23;;;;;;;9.18;3.78;;;6.40;99.90;;;;;;4876717;29;20497;-77
2021/12/19 11:52:53;;;;;;;6.60;2.97;;;6.40;99.90;;;;;;4888056;29;20064;-78
2021/12/19 11:55:34;;;;;;;10.85;3.97;;;6.30;99.90;;;;;;4871468;29;20143;-76
2021/12/19 11:58:24;;;;;;;7.33;3.43;;;6.20;99.90;;;;;;4888198;29;20118;-76
2021/12/19 12:01:02;;;;;;;8.50;3.53;;;6.20;99.90;;;;;;4865154;29;20041;-75
2021/12/19 12:03:45;;;;;;;8.30;3.47;;;6.20;99.90;;;;;;4872767;29;20055;-75
2021/12/19 12:06:35;;;;;;;11.27;4.47;;;6.20;99.90;;;;;;4883968;29;20089;-81
2021/12/19 12:09:56;;;;;;;4.53;2.60;;;6.20;99.90;;;;;;4889353;29;20119;-75
2021/12/19 12:12:34;;;;;;;7.37;3.63;;;6.20;99.90;;;;;;4870704;29;20048;-75
2021/12/19 12:15:08;;;;;;;10.07;4.10;;;6.20;99.90;;;;;;4876195;29;20048;-75
2021/12/19 12:17:51;;;;;;;9.35;3.83;;;6.30;99.90;;;;;;4893580;29;20048;-77
2021/12/19 12:20:32;;;;;;;8.73;4.22;;;6.30;99.90;;;;;;4875693;29;20080;-75
2021/12/19 12:23:10;;;;;;;7.32;3.20;;;6.30;99.90;;;;;;4873798;29;20051;-75
2021/12/19 12:25:42;;;;;;;8.87;3.40;;;6.40;99.90;;;;;;4886436;29;20052;-76
2021/12/19 12:28:39;;;;;;;7.63;3.53;;;6.40;99.90;;;;;;4885778;29;20056;-76
2021/12/19 12:31:07;;;;;;;8.18;3.50;;;6.30;99.90;;;;;;4883466;29;20053;-77
2021/12/19 12:33:37;;;;;;;10.43;4.00;;;6.20;99.90;;;;;;4886776;29;20051;-88
2021/12/19 12:36:07;;;;;;;7.70;3.97;;;6.20;99.90;;;;;;4904026;29;20052;-76
2021/12/19 12:38:36;;;;;;;9.50;3.83;;;6.30;99.90;;;;;;4876673;29;20052;-76
2021/12/19 12:41:16;;;;;;;9.00;3.78;;;6.40;99.90;;;;;;4879564;29;20059;-75
2021/12/19 12:43:44;;;;;;;10.73;3.85;;;6.50;99.90;;;;;;4878924;29;20135;-76
2021/12/19 12:46:16;;;;;;;7.25;3.20;;;6.50;99.90;;;;;;4889327;29;20147;-77
2021/12/19 12:48:54;;;;;;;12.18;4.10;;;6.50;99.90;;;;;;4881159;29;20050;-77
2021/12/19 12:51:32;;;;;;;6.93;3.80;;;6.50;99.90;;;;;;4895919;29;20084;-76
2021/12/19 12:54:05;;;;;;;8.77;2.83;;;6.40;99.90;;;;;;4879080;29;20245;-77
2021/12/19 12:56:37;;;;;;;9.57;3.03;;;6.30;99.90;;;;;;4896966;29;20373;-78
2021/12/19 12:59:09;;;;;;;8.27;3.22;;;6.30;99.90;;;;;;4887633;29;20064;-77
2021/12/19 13:01:42;;;;;;;7.70;3.25;;;6.30;99.90;;;;;;4880799;29;20071;-78
2021/12/19 13:04:14;;;;;;;7.73;2.90;;;6.30;99.90;;;;;;4894819;29;20134;-77
2021/12/19 13:07:09;;;;;;;7.00;3.67;;;6.20;99.90;;;;;;4874498;29;20444;-79
2021/12/19 13:09:42;;;;;;;10.05;3.50;;;6.30;99.90;;;;;;4898132;29;20151;-83
2021/12/19 13:12:37;;;;;;;6.00;2.88;;;6.30;99.90;;;;;;4890090;29;20458;-84
2021/12/19 13:15:09;;;;;;;8.07;3.92;;;6.30;99.90;;;;;;4900185;29;20064;-75
2021/12/19 13:18:04;;;;;;;8.97;4.30;;;6.30;99.90;;;;;;4899702;29;20040;-78
2021/12/19 13:20:36;;;;;;;7.00;2.92;;;6.40;99.90;;;;;;4892569;29;20052;-80
2021/12/19 13:23:05;;;;;;;10.02;3.78;;;6.40;99.90;;;;;;4880996;29;20131;-84
2021/12/19 13:25:40;;;;;;;8.65;4.18;;;6.50;99.90;;;;;;4892888;29;20056;-82
2021/12/19 13:28:11;;;;;;;10.02;3.65;;;6.50;99.90;;;;;;4892898;29;20052;-79
2021/12/19 13:30:41;;;;;;;10.57;4.20;;;6.40;99.90;;;;;;4917030;29;20459;-78
2021/12/19 13:33:13;;;;;;;10.70;3.65;;;6.50;99.90;;;;;;4917775;29;20512;-81
2021/12/19 13:35:46;;;;;;;9.07;3.45;;;6.40;99.90;;;;;;4911629;29;20473;-78
2021/12/19 13:38:17;;;;;;;10.05;3.45;;;6.50;99.90;;;;;;4891504;29;20054;-79
2021/12/19 13:40:49;;;;;;;10.30;4.10;;;6.50;99.90;;;;;;4907581;29;20603;-79
2021/12/19 13:43:19;;;;;;;10.67;4.10;;;6.50;99.90;;;;;;4898956;29;20051;-85
2021/12/19 13:45:49;;;;;;;10.95;3.63;;;6.50;99.90;;;;;;4893734;29;20054;-85
2021/12/19 13:48:25;;;;;;;8.20;3.90;;;6.50;99.90;;;;;;4917642;29;20414;-83
2021/12/19 13:50:59;;;;;;;11.82;5.00;;;6.60;99.90;;;;;;4914290;29;20041;-83
2021/12/19 13:53:35;;;;;;;10.55;3.42;;;6.60;99.90;;;;;;4904545;29;20044;-83
2021/12/19 13:56:09;;;;;;;11.17;3.90;;;6.60;99.90;;;;;;4898641;29;20081;-78
2021/12/19 13:58:40;;;;;;;11.25;3.80;;;6.60;99.90;;;;;;4911450;29;20040;-78
2021/12/19 14:01:13;;;;;;;8.85;4.40;;;6.60;99.90;;;;;;4911677;29;20062;-85
2021/12/19 14:03:46;;;;;;;9.15;3.60;;;6.60;99.90;;;;;;4905599;29;20522;-82
2021/12/19 14:06:15;;;;;;;10.38;3.75;;;6.60;99.90;;;;;;4894468;29;20486;-82
2021/12/19 14:08:52;;;;;;;11.80;4.40;;;6.60;99.90;;;;;;4914113;29;20110;-78
2021/12/19 14:11:25;;;;;;;8.52;3.97;;;6.60;99.90;;;;;;4910403;29;20051;-78
2021/12/19 14:14:08;;;;;;;11.95;4.40;;;6.70;99.90;;;;;;4912031;29;20051;-80
2021/12/19 14:17:03;;;;;;;9.23;4.18;;;6.60;99.90;;;;;;4909965;29;20153;-83
2021/12/19 14:22:26;;;;;;;10.17;4.00;;;6.70;99.90;;;;;;4910400;29;20044;-81
2021/12/19 14:24:56;;;;;;;10.48;3.97;;;6.70;99.90;;;;;;4913039;29;20048;-82
2021/12/19 14:27:27;;;;;;;11.63;4.82;;;6.70;99.90;;;;;;4904099;29;20483;-83
2021/12/19 14:30:01;;;;;;;13.23;4.95;;;6.70;99.90;;;;;;4878906;29;20092;-81
2021/12/19 14:32:33;;;;;;;10.82;4.82;;;6.70;99.90;;;;;;4896221;29;20044;-80
2021/12/19 14:35:04;;;;;;;11.40;4.63;;;6.70;99.90;;;;;;4885266;29;20052;-79
2021/12/19 14:37:34;;;;;;;10.85;4.40;;;6.70;99.90;;;;;;4893310;29;20077;-80
2021/12/19 14:40:18;;;;;;;11.85;4.10;;;6.70;99.90;;;;;;4888024;29;20060;-76
2021/12/19 14:42:50;;;;;;;11.50;4.28;;;6.70;99.90;;;;;;4890372;29;20499;-83
2021/12/19 14:45:23;;;;;;;10.80;4.65;;;6.70;99.90;;;;;;4889893;29;20049;-86
2021/12/19 14:48:00;;;;;;;11.30;4.33;;;6.80;99.90;;;;;;4880957;29;20057;-77
2021/12/19 14:50:31;;;;;;;11.35;5.00;;;6.80;99.90;;;;;;4876683;29;20051;-88
2021/12/19 14:53:10;;;;;;;8.13;4.50;;;6.80;99.90;;;;;;4895942;29;20052;-79
2021/12/19 14:55:43;;;;;;;14.48;5.10;;;6.80;99.90;;;;;;4895327;29;20056;-77
2021/12/19 14:58:14;;;;;;;10.23;5.03;;;6.90;99.90;;;;;;4876589;29;20136;-79
2021/12/19 15:00:46;;;;;;;12.60;5.17;;;6.80;99.90;;;;;;4896201;29;20056;-78
2021/12/19 15:03:14;;;;;;;13.65;5.93;;;6.90;99.90;;;;;;4896027;29;20472;-78
2021/12/19 15:05:43;;;;;;;17.13;5.22;;;6.90;99.90;;;;;;4897197;29;20425;-80
2021/12/19 15:08:15;;;;;;;15.73;6.13;;;7.00;99.90;;;;;;4890455;29;20049;-77
2021/12/19 15:10:44;;;;;;;14.10;6.03;;;6.90;99.90;;;;;;4877870;29;20049;-75
2021/12/19 15:13:14;;;;;;;14.07;5.33;;;7.00;99.90;;;;;;4877856;29;20092;-76
2021/12/19 15:15:43;;;;;;;13.20;5.07;;;7.00;99.90;;;;;;4877540;29;20412;-76
2021/12/19 15:18:44;;;;;;;16.13;5.63;;;7.00;99.90;;;;;;4890185;29;20055;-75
2021/12/19 15:21:37;;;;;;;10.57;4.35;;;7.00;99.90;;;;;;4894619;29;20193;-75
2021/12/19 15:24:07;;;;;;;14.07;4.88;;;6.90;99.90;;;;;;4890475;29;20064;-76
2021/12/19 15:26:36;;;;;;;11.57;5.60;;;6.90;99.90;;;;;;4900443;29;20070;-75
2021/12/19 15:29:07;;;;;;;15.82;5.70;;;6.90;99.90;;;;;;4907338;29;20047;-77
2021/12/19 15:31:37;;;;;;;16.95;6.32;;;6.90;99.90;;;;;;4896666;29;20055;-79
2021/12/19 15:34:07;;;;;;;14.80;5.43;;;6.90;99.90;;;;;;4914458;29;20075;-80
2021/12/19 15:36:37;;;;;;;14.55;5.78;;;7.00;99.90;;;;;;4917400;29;20138;-80
2021/12/19 15:39:08;;;;;;;17.07;5.07;;;6.90;99.90;;;;;;4906008;29;20142;-79
2021/12/19 15:41:37;;;;;;;14.35;5.32;;;6.90;99.90;;;;;;4916564;29;20062;-79
2021/12/19 15:44:06;;;;;;;13.90;5.70;;;7.00;99.90;;;;;;4922092;29;20048;-81
2021/12/19 15:46:35;;;;;;;14.00;5.43;;;7.00;99.90;;;;;;4911160;29;20048;-85